EPWA

Warsaw Chopin Airport

Warsaw, Poland
TAF EPWA 212330Z 2200/2224 23006KT 9999 BKN010 TEMPO 2200/2210 4000 BR BKN007 BECMG 2209/2212 16010KT PROB40 TEMPO 2215/2224 SCT012 BECMG 2216/2218 09004KT
Issued Valid From Valid To
Jan-21 @ 23:30 UTC
(51 minutes ago)
Jan-22 @ 00:00 UTC
(21 minutes ago)
Jan-23 @ 00:00 UTC
(in 24 hours)
Jan-22 @ 00:00 to Jan-22 @ 09:00
TAF EPWA 212330Z 2200/2224 23006KT 9999 BKN010
Wind Visibility Clouds
230° at 6 knots 10,000+ meters
  • Broken at 1,000' AGL
Temporary Jan-22 @ 00:00 to Jan-22 @ 10:00
TEMPO 2200/2210 4000 BR BKN007
Visibility Clouds Conditions
4,007 meters
  • Broken at 700' AGL
  • Mist
Becoming Jan-22 @ 09:00 to Jan-22 @ 16:00
BECMG 2209/2212 16010KT
Wind Visibility Clouds
160° at 10 knots 10,000+ meters
  • Broken at 1,000' AGL
Temporary  (Probability 40%) Jan-22 @ 15:00 to Jan-23 @ 00:00
PROB40 TEMPO 2215/2224 SCT012
Clouds
  • Scattered at 1,200' AGL
Becoming Jan-22 @ 16:00 to Jan-23 @ 00:00
BECMG 2216/2218 09004KT
Wind Visibility Clouds
90° at 4 knots 10,000+ meters
  • Broken at 1,000' AGL
TAF EPWA 212330Z 2200/2224 23006KT 9999 BKN010 TEMPO 2200/2210 4000 BR BKN007 BECMG 2209/2212 16010KT PROB40 TEMPO 2215/2224 SCT012 BECMG 2216/2218 09004KT
Issued Jan-21 @ 23:30 UTC
(51 minutes ago)
Valid From Jan-22 @ 00:00 UTC
(21 minutes ago)
Valid To Jan-23 @ 00:00 UTC
(in 24 hours)
Jan-22 @ 00:00 - Jan-22 @ 09:00
Wind Visibility
230° at 6 knots 10,000+ meters
Clouds
  • Broken at 1,000' AGL
Temporary Jan-22 @ 00:00 - Jan-22 @ 10:00
Clouds
  • Broken at 700' AGL
Conditions
  • Mist
Becoming Jan-22 @ 09:00 - Jan-22 @ 16:00
Wind Visibility
160° at 10 knots 10,000+ meters
Clouds
  • Broken at 1,000' AGL
Probability 40% Temporary Jan-22 @ 15:00 - Jan-23 @ 00:00
Clouds
  • Scattered at 1,200' AGL
Becoming Jan-22 @ 16:00 - Jan-23 @ 00:00
Wind Visibility
90° at 4 knots 10,000+ meters
Clouds
  • Broken at 1,000' AGL